KHRL/HRL METAR and TAF weather

Enter ICAO airport designator
Station Type Date Time Source
KHRL METAR 2020/01/18 12:52 UTC NOAA

KHRL 181252Z 15004KT 9SM CLR 21/21 A3006 RMK AO2 SLP178 T02110206 $


Station Type Date Time Source
KHRL Decoded METAR 2020/01/18 12:52 UTC NOAA

RIO GRANDE VALLEY, TX, United States (KHRL) 26-13N 97-39W 10M
Jan 18, 2020 - 07:52 AM EST / 2020.01.18 1252 UTC
Wind: from the SSE (150 degrees) at 5 MPH (4 KT):0
Visibility: 9 mile(s):0
Sky conditions: clear
Temperature: 70.0 F (21.1 C)
Dew Point: 69.1 F (20.6 C)
Relative Humidity: 96%
Pressure (altimeter): 30.06 in. Hg (1017 hPa)
ob: KHRL 181252Z 15004KT 9SM CLR 21/21 A3006 RMK AO2 SLP178 T02110206
cycle: 13

Station Type Date Time Source
KHRL TAF 2020/01/18 12:30 UTC NOAA

TAF KHRL 181127Z 1812/1912 13007KT P6SM BKN017
TEMPO 1812/1815 4SM -SHRA BR OVC009
FM181500 VRB04KT P6SM VCSH BKN035 PROB30 1821/1901 4SM TSRA BR OVC025CB
FM190100 03008KT P6SM VCTS BKN024CB
FM190600 01012KT P6SM VCSH BKN018
FM191100 01016G24KT P6SM BKN022

Example: see airport list